sensor_id;sensor_type;location;lat;lon;timestamp;temperature;humidity
3053;DHT22;1536;51.098;6.414;2022-09-04T00:01:22;21.40;99.90
3053;DHT22;1536;51.098;6.414;2022-09-04T00:03:55;21.40;99.90
3053;DHT22;1536;51.098;6.414;2022-09-04T00:06:29;21.40;99.90
3053;DHT22;1536;51.098;6.414;2022-09-04T00:09:06;21.30;99.90
3053;DHT22;1536;51.098;6.414;2022-09-04T00:11:45;21.30;99.90
3053;DHT22;1536;51.098;6.414;2022-09-04T00:14:19;21.30;99.90
3053;DHT22;1536;51.098;6.414;2022-09-04T00:16:51;21.30;99.90
3053;DHT22;1536;51.098;6.414;2022-09-04T00:19:24;21.30;99.90
3053;DHT22;1536;51.098;6.414;2022-09-04T00:21:56;21.30;99.90
3053;DHT22;1536;51.098;6.414;2022-09-04T00:24:27;21.20;99.90
3053;DHT22;1536;51.098;6.414;2022-09-04T00:27:02;21.30;99.90
3053;DHT22;1536;51.098;6.414;2022-09-04T00:29:38;21.20;99.90
3053;DHT22;1536;51.098;6.414;2022-09-04T00:32:15;21.20;99.90
3053;DHT22;1536;51.098;6.414;2022-09-04T00:35:02;21.20;99.90
3053;DHT22;1536;51.098;6.414;2022-09-04T00:37:33;21.20;99.90
3053;DHT22;1536;51.098;6.414;2022-09-04T00:40:04;21.20;99.90
3053;DHT22;1536;51.098;6.414;2022-09-04T00:42:52;21.20;99.90
3053;DHT22;1536;51.098;6.414;2022-09-04T00:45:34;21.20;99.90
3053;DHT22;1536;51.098;6.414;2022-09-04T00:48:27;21.10;99.90
3053;DHT22;1536;51.098;6.414;2022-09-04T00:51:23;21.20;99.90
3053;DHT22;1536;51.098;6.414;2022-09-04T00:54:12;21.10;99.90
3053;DHT22;1536;51.098;6.414;2022-09-04T01:00:10;21.00;99.90
3053;DHT22;1536;51.098;6.414;2022-09-04T01:03:07;21.00;99.90
3053;DHT22;1536;51.098;6.414;2022-09-04T01:05:46;21.00;99.90
3053;DHT22;1536;51.098;6.414;2022-09-04T01:08:22;21.00;99.90
3053;DHT22;1536;51.098;6.414;2022-09-04T01:11:05;21.00;99.90
3053;DHT22;1536;51.098;6.414;2022-09-04T01:13:38;21.00;99.90
3053;DHT22;1536;51.098;6.414;2022-09-04T01:16:12;21.00;99.90
3053;DHT22;1536;51.098;6.414;2022-09-04T01:18:46;21.00;99.90
3053;DHT22;1536;51.098;6.414;2022-09-04T01:21:41;21.00;99.90
3053;DHT22;1536;51.098;6.414;2022-09-04T01:24:22;21.00;99.90
3053;DHT22;1536;51.098;6.414;2022-09-04T01:27:01;21.00;99.90
3053;DHT22;1536;51.098;6.414;2022-09-04T01:29:38;20.90;99.90
3053;DHT22;1536;51.098;6.414;2022-09-04T01:32:14;21.00;99.90
3053;DHT22;1536;51.098;6.414;2022-09-04T01:34:49;21.00;99.90
3053;DHT22;1536;51.098;6.414;2022-09-04T01:37:29;20.90;99.90
3053;DHT22;1536;51.098;6.414;2022-09-04T01:40:14;20.90;99.90
3053;DHT22;1536;51.098;6.414;2022-09-04T01:42:48;20.90;99.90
3053;DHT22;1536;51.098;6.414;2022-09-04T01:45:31;20.90;99.90
3053;DHT22;1536;51.098;6.414;2022-09-04T01:48:02;20.90;99.90
3053;DHT22;1536;51.098;6.414;2022-09-04T01:50:34;20.80;99.90
3053;DHT22;1536;51.098;6.414;2022-09-04T01:53:09;20.80;99.90
3053;DHT22;1536;51.098;6.414;2022-09-04T01:55:43;20.80;99.90
3053;DHT22;1536;51.098;6.414;2022-09-04T01:58:21;20.80;99.90
3053;DHT22;1536;51.098;6.414;2022-09-04T02:00:59;20.80;99.90
3053;DHT22;1536;51.098;6.414;2022-09-04T02:03:36;20.70;99.90
3053;DHT22;1536;51.098;6.414;2022-09-04T02:06:14;20.70;99.90
3053;DHT22;1536;51.098;6.414;2022-09-04T02:08:53;20.70;99.90
3053;DHT22;1536;51.098;6.414;2022-09-04T02:11:27;20.70;99.90
3053;DHT22;1536;51.098;6.414;2022-09-04T02:14:14;20.70;99.90
3053;DHT22;1536;51.098;6.414;2022-09-04T02:16:53;20.60;99.90
3053;DHT22;1536;51.098;6.414;2022-09-04T02:19:34;20.60;99.90
3053;DHT22;1536;51.098;6.414;2022-09-04T02:22:08;20.60;99.90
3053;DHT22;1536;51.098;6.414;2022-09-04T02:24:44;20.50;99.90
3053;DHT22;1536;51.098;6.414;2022-09-04T02:27:19;20.50;99.90
3053;DHT22;1536;51.098;6.414;2022-09-04T02:29:57;20.50;99.90
3053;DHT22;1536;51.098;6.414;2022-09-04T02:32:32;20.50;99.90
3053;DHT22;1536;51.098;6.414;2022-09-04T02:35:07;20.40;99.90
3053;DHT22;1536;51.098;6.414;2022-09-04T02:37:43;20.40;99.90
3053;DHT22;1536;51.098;6.414;2022-09-04T02:40:15;20.30;99.90
3053;DHT22;1536;51.098;6.414;2022-09-04T02:42:55;20.30;99.90
3053;DHT22;1536;51.098;6.414;2022-09-04T02:45:32;20.30;99.90
3053;DHT22;1536;51.098;6.414;2022-09-04T02:48:05;20.30;99.90
3053;DHT22;1536;51.098;6.414;2022-09-04T02:50:42;20.30;99.90
3053;DHT22;1536;51.098;6.414;2022-09-04T02:53:22;20.20;99.90
3053;DHT22;1536;51.098;6.414;2022-09-04T02:56:15;20.20;99.90
3053;DHT22;1536;51.098;6.414;2022-09-04T02:58:55;20.10;99.90
3053;DHT22;1536;51.098;6.414;2022-09-04T03:01:34;20.00;99.90
3053;DHT22;1536;51.098;6.414;2022-09-04T03:04:09;19.90;99.90
3053;DHT22;1536;51.098;6.414;2022-09-04T03:06:48;19.90;99.90
3053;DHT22;1536;51.098;6.414;2022-09-04T03:09:21;19.80;99.90
3053;DHT22;1536;51.098;6.414;2022-09-04T03:11:52;19.70;99.90
3053;DHT22;1536;51.098;6.414;2022-09-04T03:14:27;19.60;99.90
3053;DHT22;1536;51.098;6.414;2022-09-04T03:17:05;19.50;99.90
3053;DHT22;1536;51.098;6.414;2022-09-04T03:19:38;19.50;99.90
3053;DHT22;1536;51.098;6.414;2022-09-04T03:22:13;19.40;99.90
3053;DHT22;1536;51.098;6.414;2022-09-04T03:24:56;19.30;99.90
3053;DHT22;1536;51.098;6.414;2022-09-04T03:27:25;19.30;99.90
3053;DHT22;1536;51.098;6.414;2022-09-04T03:29:57;19.20;99.90
3053;DHT22;1536;51.098;6.414;2022-09-04T03:32:31;19.20;99.90
3053;DHT22;1536;51.098;6.414;2022-09-04T03:35:05;19.20;99.90
3053;DHT22;1536;51.098;6.414;2022-09-04T03:37:45;19.10;99.90
3053;DHT22;1536;51.098;6.414;2022-09-04T03:40:23;19.10;99.90
3053;DHT22;1536;51.098;6.414;2022-09-04T03:46:01;19.10;99.90
3053;DHT22;1536;51.098;6.414;2022-09-04T03:48:45;19.00;99.90
3053;DHT22;1536;51.098;6.414;2022-09-04T03:51:16;19.00;99.90
3053;DHT22;1536;51.098;6.414;2022-09-04T03:53:59;19.00;99.90
3053;DHT22;1536;51.098;6.414;2022-09-04T03:56:49;19.00;99.90
3053;DHT22;1536;51.098;6.414;2022-09-04T03:59:29;19.00;99.90
3053;DHT22;1536;51.098;6.414;2022-09-04T04:02:04;18.90;99.90
3053;DHT22;1536;51.098;6.414;2022-09-04T04:07:39;18.90;99.90
3053;DHT22;1536;51.098;6.414;2022-09-04T04:10:19;18.90;99.90
3053;DHT22;1536;51.098;6.414;2022-09-04T04:13:03;18.80;99.90
3053;DHT22;1536;51.098;6.414;2022-09-04T04:15:45;18.80;99.90
3053;DHT22;1536;51.098;6.414;2022-09-04T04:18:31;18.80;99.90
3053;DHT22;1536;51.098;6.414;2022-09-04T04:21:07;18.80;99.90
3053;DHT22;1536;51.098;6.414;2022-09-04T04:26:56;18.70;99.90
3053;DHT22;1536;51.098;6.414;2022-09-04T04:29:57;18.70;99.90
3053;DHT22;1536;51.098;6.414;2022-09-04T04:32:49;18.60;99.90
3053;DHT22;1536;51.098;6.414;2022-09-04T04:35:27;18.60;99.90
3053;DHT22;1536;51.098;6.414;2022-09-04T04:38:16;18.60;99.90
3053;DHT22;1536;51.098;6.414;2022-09-04T04:43:45;18.60;99.90
3053;DHT22;1536;51.098;6.414;2022-09-04T04:46:21;18.50;99.90
3053;DHT22;1536;51.098;6.414;2022-09-04T04:49:18;18.50;99.90
3053;DHT22;1536;51.098;6.414;2022-09-04T04:52:19;18.50;99.90
3053;DHT22;1536;51.098;6.414;2022-09-04T04:57:54;18.50;99.90
3053;DHT22;1536;51.098;6.414;2022-09-04T05:00:31;18.50;99.90
3053;DHT22;1536;51.098;6.414;2022-09-04T05:03:06;18.50;99.90
3053;DHT22;1536;51.098;6.414;2022-09-04T05:05:51;18.50;99.90
3053;DHT22;1536;51.098;6.414;2022-09-04T05:08:30;18.40;99.90
3053;DHT22;1536;51.098;6.414;2022-09-04T05:11:06;18.40;99.90
3053;DHT22;1536;51.098;6.414;2022-09-04T05:13:44;18.40;99.90
3053;DHT22;1536;51.098;6.414;2022-09-04T05:16:19;18.40;99.90
3053;DHT22;1536;51.098;6.414;2022-09-04T05:18:54;18.40;99.90
3053;DHT22;1536;51.098;6.414;2022-09-04T05:21:28;18.50;99.90
3053;DHT22;1536;51.098;6.414;2022-09-04T05:24:00;18.50;99.90
3053;DHT22;1536;51.098;6.414;2022-09-04T05:26:35;18.50;99.90
3053;DHT22;1536;51.098;6.414;2022-09-04T05:29:09;18.50;99.90
3053;DHT22;1536;51.098;6.414;2022-09-04T05:31:45;18.50;99.90
3053;DHT22;1536;51.098;6.414;2022-09-04T05:34:20;18.60;99.90
3053;DHT22;1536;51.098;6.414;2022-09-04T05:36:59;18.60;99.90
3053;DHT22;1536;51.098;6.414;2022-09-04T05:39:30;18.60;99.90
3053;DHT22;1536;51.098;6.414;2022-09-04T05:42:13;18.60;99.90
3053;DHT22;1536;51.098;6.414;2022-09-04T05:44:53;18.60;99.90
3053;DHT22;1536;51.098;6.414;2022-09-04T05:47:30;18.60;99.90
3053;DHT22;1536;51.098;6.414;2022-09-04T05:50:22;18.60;99.90
3053;DHT22;1536;51.098;6.414;2022-09-04T05:52:59;18.60;99.90
3053;DHT22;1536;51.098;6.414;2022-09-04T05:55:45;18.60;99.90
3053;DHT22;1536;51.098;6.414;2022-09-04T05:58:32;18.60;99.90
3053;DHT22;1536;51.098;6.414;2022-09-04T06:01:12;18.70;99.90
3053;DHT22;1536;51.098;6.414;2022-09-04T06:06:46;18.80;99.90
3053;DHT22;1536;51.098;6.414;2022-09-04T06:12:24;18.90;99.90
3053;DHT22;1536;51.098;6.414;2022-09-04T06:15:09;19.00;99.90
3053;DHT22;1536;51.098;6.414;2022-09-04T06:18:02;19.10;99.90
3053;DHT22;1536;51.098;6.414;2022-09-04T06:20:42;19.20;99.90
3053;DHT22;1536;51.098;6.414;2022-09-04T06:23:31;19.30;99.90
3053;DHT22;1536;51.098;6.414;2022-09-04T06:26:25;19.30;99.90
3053;DHT22;1536;51.098;6.414;2022-09-04T06:29:03;19.40;99.90
3053;DHT22;1536;51.098;6.414;2022-09-04T06:31:52;19.50;99.90
3053;DHT22;1536;51.098;6.414;2022-09-04T06:34:33;19.60;99.90
3053;DHT22;1536;51.098;6.414;2022-09-04T06:37:13;19.60;99.90
3053;DHT22;1536;51.098;6.414;2022-09-04T06:39:51;19.70;99.90
3053;DHT22;1536;51.098;6.414;2022-09-04T06:42:27;19.90;99.90
3053;DHT22;1536;51.098;6.414;2022-09-04T06:45:08;19.90;99.90
3053;DHT22;1536;51.098;6.414;2022-09-04T06:47:50;20.00;99.90
3053;DHT22;1536;51.098;6.414;2022-09-04T06:50:22;20.10;99.90
3053;DHT22;1536;51.098;6.414;2022-09-04T06:53:06;20.10;99.90
3053;DHT22;1536;51.098;6.414;2022-09-04T06:55:39;20.20;99.90
3053;DHT22;1536;51.098;6.414;2022-09-04T06:58:24;20.20;99.90
3053;DHT22;1536;51.098;6.414;2022-09-04T07:00:56;20.20;99.90
3053;DHT22;1536;51.098;6.414;2022-09-04T07:03:37;20.30;99.90
3053;DHT22;1536;51.098;6.414;2022-09-04T07:06:13;20.30;99.90
3053;DHT22;1536;51.098;6.414;2022-09-04T07:08:53;20.40;99.90
3053;DHT22;1536;51.098;6.414;2022-09-04T07:11:32;20.50;99.90
3053;DHT22;1536;51.098;6.414;2022-09-04T07:14:26;20.50;99.90
3053;DHT22;1536;51.098;6.414;2022-09-04T07:17:04;20.50;99.90
3053;DHT22;1536;51.098;6.414;2022-09-04T07:19:50;20.60;99.90
3053;DHT22;1536;51.098;6.414;2022-09-04T07:22:33;20.70;99.90
3053;DHT22;1536;51.098;6.414;2022-09-04T07:25:12;20.70;99.90
3053;DHT22;1536;51.098;6.414;2022-09-04T07:27:58;20.80;99.90
3053;DHT22;1536;51.098;6.414;2022-09-04T07:30:37;20.80;99.90
3053;DHT22;1536;51.098;6.414;2022-09-04T07:33:12;20.90;99.90
3053;DHT22;1536;51.098;6.414;2022-09-04T07:35:46;20.90;99.90
3053;DHT22;1536;51.098;6.414;2022-09-04T07:38:22;21.00;99.90
3053;DHT22;1536;51.098;6.414;2022-09-04T07:41:01;21.00;99.90
3053;DHT22;1536;51.098;6.414;2022-09-04T07:43:41;21.10;99.90
3053;DHT22;1536;51.098;6.414;2022-09-04T07:46:15;21.10;99.90
3053;DHT22;1536;51.098;6.414;2022-09-04T07:48:49;21.20;99.90
3053;DHT22;1536;51.098;6.414;2022-09-04T07:51:22;21.20;99.90
3053;DHT22;1536;51.098;6.414;2022-09-04T07:54:20;21.30;99.90
3053;DHT22;1536;51.098;6.414;2022-09-04T07:57:20;21.40;99.90
3053;DHT22;1536;51.098;6.414;2022-09-04T08:00:00;21.40;99.90
3053;DHT22;1536;51.098;6.414;2022-09-04T08:02:50;21.50;99.90
3053;DHT22;1536;51.098;6.414;2022-09-04T08:05:22;21.50;99.90
3053;DHT22;1536;51.098;6.414;2022-09-04T08:08:17;21.60;99.90
3053;DHT22;1536;51.098;6.414;2022-09-04T08:11:07;21.70;99.90
3053;DHT22;1536;51.098;6.414;2022-09-04T08:13:57;21.70;99.90
3053;DHT22;1536;51.098;6.414;2022-09-04T08:16:35;21.80;99.90
3053;DHT22;1536;51.098;6.414;2022-09-04T08:19:22;21.90;99.90
3053;DHT22;1536;51.098;6.414;2022-09-04T08:21:52;21.90;99.90
3053;DHT22;1536;51.098;6.414;2022-09-04T08:27:36;22.10;99.90
3053;DHT22;1536;51.098;6.414;2022-09-04T08:30:07;22.10;99.90
3053;DHT22;1536;51.098;6.414;2022-09-04T08:35:51;22.30;99.90
3053;DHT22;1536;51.098;6.414;2022-09-04T08:38:43;22.40;99.90
3053;DHT22;1536;51.098;6.414;2022-09-04T08:41:44;22.50;99.90
3053;DHT22;1536;51.098;6.414;2022-09-04T08:47:59;22.60;99.90
3053;DHT22;1536;51.098;6.414;2022-09-04T08:54:01;22.80;99.90
3053;DHT22;1536;51.098;6.414;2022-09-04T08:56:36;22.90;99.90
3053;DHT22;1536;51.098;6.414;2022-09-04T08:59:51;23.00;99.90
3053;DHT22;1536;51.098;6.414;2022-09-04T09:05:38;23.20;99.90
3053;DHT22;1536;51.098;6.414;2022-09-04T09:08:38;23.30;99.90
3053;DHT22;1536;51.098;6.414;2022-09-04T09:11:33;23.40;99.90
3053;DHT22;1536;51.098;6.414;2022-09-04T09:17:11;23.60;99.90
3053;DHT22;1536;51.098;6.414;2022-09-04T09:19:43;23.70;99.90
3053;DHT22;1536;51.098;6.414;2022-09-04T09:22:28;23.80;99.90
3053;DHT22;1536;51.098;6.414;2022-09-04T09:25:17;23.80;99.90
3053;DHT22;1536;51.098;6.414;2022-09-04T09:28:18;23.90;99.90
3053;DHT22;1536;51.098;6.414;2022-09-04T09:31:16;24.10;99.90
3053;DHT22;1536;51.098;6.414;2022-09-04T09:34:13;24.10;99.90
3053;DHT22;1536;51.098;6.414;2022-09-04T09:37:06;24.20;99.90
3053;DHT22;1536;51.098;6.414;2022-09-04T09:40:02;24.30;99.90
3053;DHT22;1536;51.098;6.414;2022-09-04T09:43:17;24.40;99.90
3053;DHT22;1536;51.098;6.414;2022-09-04T09:46:23;24.40;99.90
3053;DHT22;1536;51.098;6.414;2022-09-04T09:49:20;24.50;99.90
3053;DHT22;1536;51.098;6.414;2022-09-04T09:55:21;24.60;99.90
3053;DHT22;1536;51.098;6.414;2022-09-04T09:58:14;24.70;99.90
3053;DHT22;1536;51.098;6.414;2022-09-04T10:00:56;24.70;99.90
3053;DHT22;1536;51.098;6.414;2022-09-04T10:03:46;24.80;99.90
3053;DHT22;1536;51.098;6.414;2022-09-04T10:06:50;24.90;99.90
3053;DHT22;1536;51.098;6.414;2022-09-04T10:09:50;25.00;99.90
3053;DHT22;1536;51.098;6.414;2022-09-04T10:12:56;25.00;99.90
3053;DHT22;1536;51.098;6.414;2022-09-04T10:15:50;25.00;99.90
3053;DHT22;1536;51.098;6.414;2022-09-04T10:18:38;25.20;99.90
3053;DHT22;1536;51.098;6.414;2022-09-04T10:21:25;25.30;99.70
3053;DHT22;1536;51.098;6.414;2022-09-04T10:27:41;25.50;99.30
3053;DHT22;1536;51.098;6.414;2022-09-04T10:30:15;25.60;99.40
3053;DHT22;1536;51.098;6.414;2022-09-04T10:33:16;25.70;99.10
3053;DHT22;1536;51.098;6.414;2022-09-04T10:35:55;25.80;98.90
3053;DHT22;1536;51.098;6.414;2022-09-04T10:38:39;25.90;98.70
3053;DHT22;1536;51.098;6.414;2022-09-04T10:41:47;25.90;98.60
3053;DHT22;1536;51.098;6.414;2022-09-04T10:47:32;26.00;98.20
3053;DHT22;1536;51.098;6.414;2022-09-04T10:50:22;26.00;98.30
3053;DHT22;1536;51.098;6.414;2022-09-04T10:53:13;26.00;98.00
3053;DHT22;1536;51.098;6.414;2022-09-04T10:56:03;26.10;97.50
3053;DHT22;1536;51.098;6.414;2022-09-04T10:58:40;26.10;97.20
3053;DHT22;1536;51.098;6.414;2022-09-04T11:04:34;26.10;96.90
3053;DHT22;1536;51.098;6.414;2022-09-04T11:07:26;26.10;96.40
3053;DHT22;1536;51.098;6.414;2022-09-04T11:10:22;26.10;95.60
3053;DHT22;1536;51.098;6.414;2022-09-04T11:13:25;26.20;95.40
3053;DHT22;1536;51.098;6.414;2022-09-04T11:16:21;26.20;95.20
3053;DHT22;1536;51.098;6.414;2022-09-04T11:29:00;26.30;95.00
3053;DHT22;1536;51.098;6.414;2022-09-04T11:31:34;26.30;94.70
3053;DHT22;1536;51.098;6.414;2022-09-04T11:34:44;26.30;94.80
3053;DHT22;1536;51.098;6.414;2022-09-04T11:37:43;26.40;93.90
3053;DHT22;1536;51.098;6.414;2022-09-04T11:40:52;26.40;93.30
3053;DHT22;1536;51.098;6.414;2022-09-04T11:43:43;26.40;92.90
3053;DHT22;1536;51.098;6.414;2022-09-04T11:46:44;26.50;92.70
3053;DHT22;1536;51.098;6.414;2022-09-04T11:49:30;26.40;92.60
3053;DHT22;1536;51.098;6.414;2022-09-04T11:52:14;26.50;92.80
3053;DHT22;1536;51.098;6.414;2022-09-04T11:55:04;26.50;92.70
3053;DHT22;1536;51.098;6.414;2022-09-04T11:57:47;26.50;92.40
3053;DHT22;1536;51.098;6.414;2022-09-04T12:00:18;26.50;92.50
3053;DHT22;1536;51.098;6.414;2022-09-04T12:02:59;26.60;92.20
3053;DHT22;1536;51.098;6.414;2022-09-04T12:08:48;26.70;91.90
3053;DHT22;1536;51.098;6.414;2022-09-04T12:11:35;26.70;91.70
3053;DHT22;1536;51.098;6.414;2022-09-04T12:14:15;26.70;91.60
3053;DHT22;1536;51.098;6.414;2022-09-04T12:17:16;26.70;91.30
3053;DHT22;1536;51.098;6.414;2022-09-04T12:23:16;26.80;90.70
3053;DHT22;1536;51.098;6.414;2022-09-04T12:26:19;26.90;90.30
3053;DHT22;1536;51.098;6.414;2022-09-04T12:29:21;26.90;90.00
3053;DHT22;1536;51.098;6.414;2022-09-04T12:32:14;26.90;89.30
3053;DHT22;1536;51.098;6.414;2022-09-04T12:38:30;26.90;87.00
3053;DHT22;1536;51.098;6.414;2022-09-04T12:41:06;27.00;87.20
3053;DHT22;1536;51.098;6.414;2022-09-04T12:43:44;27.00;86.70
3053;DHT22;1536;51.098;6.414;2022-09-04T12:46:33;27.00;86.50
3053;DHT22;1536;51.098;6.414;2022-09-04T12:49:27;27.00;86.40
3053;DHT22;1536;51.098;6.414;2022-09-04T12:52:03;27.10;86.10
3053;DHT22;1536;51.098;6.414;2022-09-04T12:54:40;27.10;86.50
3053;DHT22;1536;51.098;6.414;2022-09-04T12:57:22;27.10;86.50
3053;DHT22;1536;51.098;6.414;2022-09-04T13:00:02;27.10;86.20
3053;DHT22;1536;51.098;6.414;2022-09-04T13:02:47;27.20;86.80
3053;DHT22;1536;51.098;6.414;2022-09-04T13:05:41;27.20;88.00
3053;DHT22;1536;51.098;6.414;2022-09-04T13:08:17;27.30;85.60
3053;DHT22;1536;51.098;6.414;2022-09-04T13:10:57;27.30;85.60
3053;DHT22;1536;51.098;6.414;2022-09-04T13:13:31;27.30;85.00
3053;DHT22;1536;51.098;6.414;2022-09-04T13:16:05;27.30;85.60
3053;DHT22;1536;51.098;6.414;2022-09-04T13:18:47;27.40;85.30
3053;DHT22;1536;51.098;6.414;2022-09-04T13:21:23;27.50;85.20
3053;DHT22;1536;51.098;6.414;2022-09-04T13:24:12;27.60;85.40
3053;DHT22;1536;51.098;6.414;2022-09-04T13:26:52;27.60;85.90
3053;DHT22;1536;51.098;6.414;2022-09-04T13:29:31;27.70;85.80
3053;DHT22;1536;51.098;6.414;2022-09-04T13:32:23;27.60;85.50
3053;DHT22;1536;51.098;6.414;2022-09-04T13:35:04;27.70;85.40
3053;DHT22;1536;51.098;6.414;2022-09-04T13:37:42;27.70;84.40
3053;DHT22;1536;51.098;6.414;2022-09-04T13:40:20;27.80;82.90
3053;DHT22;1536;51.098;6.414;2022-09-04T13:43:15;27.80;82.60
3053;DHT22;1536;51.098;6.414;2022-09-04T13:45:48;27.90;83.00
3053;DHT22;1536;51.098;6.414;2022-09-04T13:48:24;27.90;83.40
3053;DHT22;1536;51.098;6.414;2022-09-04T13:50:56;27.90;82.50
3053;DHT22;1536;51.098;6.414;2022-09-04T13:53:26;28.00;82.20
3053;DHT22;1536;51.098;6.414;2022-09-04T13:55:57;28.00;81.80
3053;DHT22;1536;51.098;6.414;2022-09-04T13:58:30;28.00;81.50
3053;DHT22;1536;51.098;6.414;2022-09-04T14:01:00;28.00;81.90
3053;DHT22;1536;51.098;6.414;2022-09-04T14:03:33;28.10;82.30
3053;DHT22;1536;51.098;6.414;2022-09-04T14:06:03;28.10;82.20
3053;DHT22;1536;51.098;6.414;2022-09-04T14:08:30;28.10;81.30
3053;DHT22;1536;51.098;6.414;2022-09-04T14:11:19;28.10;81.50
3053;DHT22;1536;51.098;6.414;2022-09-04T14:14:09;28.20;80.10
3053;DHT22;1536;51.098;6.414;2022-09-04T14:16:41;28.20;80.20
3053;DHT22;1536;51.098;6.414;2022-09-04T14:19:18;28.20;79.70
3053;DHT22;1536;51.098;6.414;2022-09-04T14:22:01;28.20;79.80
3053;DHT22;1536;51.098;6.414;2022-09-04T14:24:36;28.30;80.10
3053;DHT22;1536;51.098;6.414;2022-09-04T14:27:09;28.30;80.00
3053;DHT22;1536;51.098;6.414;2022-09-04T14:29:51;28.40;79.60
3053;DHT22;1536;51.098;6.414;2022-09-04T14:32:24;28.30;79.40
3053;DHT22;1536;51.098;6.414;2022-09-04T14:35:00;28.30;79.50
3053;DHT22;1536;51.098;6.414;2022-09-04T14:37:45;28.20;79.80
3053;DHT22;1536;51.098;6.414;2022-09-04T14:40:16;28.20;80.50
3053;DHT22;1536;51.098;6.414;2022-09-04T14:42:48;28.20;80.80
3053;DHT22;1536;51.098;6.414;2022-09-04T14:45:47;28.20;80.50
3053;DHT22;1536;51.098;6.414;2022-09-04T14:48:16;28.30;79.70
3053;DHT22;1536;51.098;6.414;2022-09-04T14:50:50;28.30;79.90
3053;DHT22;1536;51.098;6.414;2022-09-04T14:53:21;28.40;79.40
3053;DHT22;1536;51.098;6.414;2022-09-04T14:56:25;28.30;77.60
3053;DHT22;1536;51.098;6.414;2022-09-04T14:58:55;28.30;77.90
3053;DHT22;1536;51.098;6.414;2022-09-04T15:01:26;28.30;77.60
3053;DHT22;1536;51.098;6.414;2022-09-04T15:03:57;28.30;78.20
3053;DHT22;1536;51.098;6.414;2022-09-04T15:06:28;28.30;78.30
3053;DHT22;1536;51.098;6.414;2022-09-04T15:09:19;28.40;78.20
3053;DHT22;1536;51.098;6.414;2022-09-04T15:11:48;28.40;78.50
3053;DHT22;1536;51.098;6.414;2022-09-04T15:14:21;28.40;78.50
3053;DHT22;1536;51.098;6.414;2022-09-04T15:16:57;28.40;79.10
3053;DHT22;1536;51.098;6.414;2022-09-04T15:19:32;28.40;79.10
3053;DHT22;1536;51.098;6.414;2022-09-04T15:22:09;28.40;78.70
3053;DHT22;1536;51.098;6.414;2022-09-04T15:24:49;28.40;78.70
3053;DHT22;1536;51.098;6.414;2022-09-04T15:27:20;28.40;78.30
3053;DHT22;1536;51.098;6.414;2022-09-04T15:29:59;28.40;77.90
3053;DHT22;1536;51.098;6.414;2022-09-04T15:32:31;28.40;77.70
3053;DHT22;1536;51.098;6.414;2022-09-04T15:35:15;28.30;78.10
3053;DHT22;1536;51.098;6.414;2022-09-04T15:37:47;28.20;78.70
3053;DHT22;1536;51.098;6.414;2022-09-04T15:40:23;28.20;79.10
3053;DHT22;1536;51.098;6.414;2022-09-04T15:42:59;28.10;78.50
3053;DHT22;1536;51.098;6.414;2022-09-04T15:45:33;28.00;78.60
3053;DHT22;1536;51.098;6.414;2022-09-04T15:48:21;28.00;78.70
3053;DHT22;1536;51.098;6.414;2022-09-04T15:50:58;28.00;78.70
3053;DHT22;1536;51.098;6.414;2022-09-04T15:53:28;27.90;79.10
3053;DHT22;1536;51.098;6.414;2022-09-04T15:56:06;27.90;79.20
3053;DHT22;1536;51.098;6.414;2022-09-04T15:58:43;27.80;79.00
3053;DHT22;1536;51.098;6.414;2022-09-04T16:01:14;27.80;78.70
3053;DHT22;1536;51.098;6.414;2022-09-04T16:03:52;27.80;78.50
3053;DHT22;1536;51.098;6.414;2022-09-04T16:06:24;27.80;78.30
3053;DHT22;1536;51.098;6.414;2022-09-04T16:08:59;27.70;78.60
3053;DHT22;1536;51.098;6.414;2022-09-04T16:11:30;27.70;78.20
3053;DHT22;1536;51.098;6.414;2022-09-04T16:14:01;27.70;78.10
3053;DHT22;1536;51.098;6.414;2022-09-04T16:16:33;27.60;78.10
3053;DHT22;1536;51.098;6.414;2022-09-04T16:19:18;27.60;78.40
3053;DHT22;1536;51.098;6.414;2022-09-04T16:21:53;27.60;78.80
3053;DHT22;1536;51.098;6.414;2022-09-04T16:24:25;27.50;79.00
3053;DHT22;1536;51.098;6.414;2022-09-04T16:26:54;27.50;79.50
3053;DHT22;1536;51.098;6.414;2022-09-04T16:29:27;27.40;79.80
3053;DHT22;1536;51.098;6.414;2022-09-04T16:32:02;27.40;80.00
3053;DHT22;1536;51.098;6.414;2022-09-04T16:34:36;27.40;80.90
3053;DHT22;1536;51.098;6.414;2022-09-04T16:37:10;27.30;81.00
3053;DHT22;1536;51.098;6.414;2022-09-04T16:39:46;27.20;81.00
3053;DHT22;1536;51.098;6.414;2022-09-04T16:42:20;27.20;80.90
3053;DHT22;1536;51.098;6.414;2022-09-04T16:44:52;27.10;81.60
3053;DHT22;1536;51.098;6.414;2022-09-04T16:47:29;27.10;81.70
3053;DHT22;1536;51.098;6.414;2022-09-04T16:50:04;27.10;81.00
3053;DHT22;1536;51.098;6.414;2022-09-04T16:52:50;27.00;80.90
3053;DHT22;1536;51.098;6.414;2022-09-04T16:55:23;27.00;79.90
3053;DHT22;1536;51.098;6.414;2022-09-04T16:58:05;26.90;80.00
3053;DHT22;1536;51.098;6.414;2022-09-04T17:00:59;26.90;80.40
3053;DHT22;1536;51.098;6.414;2022-09-04T17:03:55;26.80;80.20
3053;DHT22;1536;51.098;6.414;2022-09-04T17:06:28;26.80;80.30
3053;DHT22;1536;51.098;6.414;2022-09-04T17:09:04;26.70;79.90
3053;DHT22;1536;51.098;6.414;2022-09-04T17:11:39;26.70;79.90
3053;DHT22;1536;51.098;6.414;2022-09-04T17:14:16;26.70;80.80
3053;DHT22;1536;51.098;6.414;2022-09-04T17:16:52;26.60;82.00
3053;DHT22;1536;51.098;6.414;2022-09-04T17:19:21;26.50;82.80
3053;DHT22;1536;51.098;6.414;2022-09-04T17:22:13;26.50;83.60
3053;DHT22;1536;51.098;6.414;2022-09-04T17:25:06;26.40;84.60
3053;DHT22;1536;51.098;6.414;2022-09-04T17:27:41;26.30;85.20
3053;DHT22;1536;51.098;6.414;2022-09-04T17:30:14;26.30;85.70
3053;DHT22;1536;51.098;6.414;2022-09-04T17:32:47;26.20;86.40
3053;DHT22;1536;51.098;6.414;2022-09-04T17:35:20;26.10;86.90
3053;DHT22;1536;51.098;6.414;2022-09-04T17:37:54;26.10;87.30
3053;DHT22;1536;51.098;6.414;2022-09-04T17:40:24;26.00;87.80
3053;DHT22;1536;51.098;6.414;2022-09-04T17:43:02;25.90;87.90
3053;DHT22;1536;51.098;6.414;2022-09-04T17:45:37;25.90;88.10
3053;DHT22;1536;51.098;6.414;2022-09-04T17:48:18;25.80;88.00
3053;DHT22;1536;51.098;6.414;2022-09-04T17:50:48;25.70;88.00
3053;DHT22;1536;51.098;6.414;2022-09-04T17:53:22;25.70;88.10
3053;DHT22;1536;51.098;6.414;2022-09-04T17:55:52;25.60;88.00
3053;DHT22;1536;51.098;6.414;2022-09-04T17:58:27;25.60;87.70
3053;DHT22;1536;51.098;6.414;2022-09-04T18:00:58;25.50;87.30
3053;DHT22;1536;51.098;6.414;2022-09-04T18:03:36;25.40;87.50
3053;DHT22;1536;51.098;6.414;2022-09-04T18:06:07;25.30;87.80
3053;DHT22;1536;51.098;6.414;2022-09-04T18:08:40;25.30;88.10
3053;DHT22;1536;51.098;6.414;2022-09-04T18:11:11;25.20;88.00
3053;DHT22;1536;51.098;6.414;2022-09-04T18:13:47;25.10;88.10
3053;DHT22;1536;51.098;6.414;2022-09-04T18:19:13;24.90;88.40
3053;DHT22;1536;51.098;6.414;2022-09-04T18:21:44;24.90;88.80
3053;DHT22;1536;51.098;6.414;2022-09-04T18:24:16;24.80;89.30
3053;DHT22;1536;51.098;6.414;2022-09-04T18:26:47;24.70;89.80
3053;DHT22;1536;51.098;6.414;2022-09-04T18:29:36;24.60;90.00
3053;DHT22;1536;51.098;6.414;2022-09-04T18:32:09;24.50;90.20
3053;DHT22;1536;51.098;6.414;2022-09-04T18:34:40;24.50;90.30
3053;DHT22;1536;51.098;6.414;2022-09-04T18:37:15;24.40;90.40
3053;DHT22;1536;51.098;6.414;2022-09-04T18:39:49;24.30;90.60
3053;DHT22;1536;51.098;6.414;2022-09-04T18:42:30;24.30;90.80
3053;DHT22;1536;51.098;6.414;2022-09-04T18:45:07;24.20;90.90
3053;DHT22;1536;51.098;6.414;2022-09-04T18:47:37;24.20;91.10